createdAt,value
2022-10-06T00:01:42.214Z,5.43
2022-10-06T00:04:09.995Z,6.47
2022-10-06T00:06:37.121Z,5.83
2022-10-06T00:09:04.230Z,6.15
2022-10-06T00:11:31.337Z,6.00
2022-10-06T00:13:58.433Z,5.20
2022-10-06T00:16:25.613Z,5.35
2022-10-06T00:18:52.682Z,6.00
2022-10-06T00:21:19.858Z,5.28
2022-10-06T00:23:46.939Z,5.70
2022-10-06T00:26:16.856Z,5.87
2022-10-06T00:28:45.084Z,5.18
2022-10-06T00:31:12.213Z,5.50
2022-10-06T00:33:39.379Z,5.70
2022-10-06T00:36:07.430Z,5.85
2022-10-06T00:38:34.637Z,5.75
2022-10-06T00:41:01.712Z,6.05
2022-10-06T00:43:48.340Z,5.90
2022-10-06T00:46:15.630Z,5.60
2022-10-06T00:48:43.899Z,5.45
2022-10-06T00:51:11.062Z,5.45
2022-10-06T00:53:38.174Z,5.72
2022-10-06T00:56:05.287Z,5.53
2022-10-06T00:58:32.466Z,5.10
2022-10-06T01:01:00.359Z,5.30
2022-10-06T01:03:36.099Z,5.30
2022-10-06T01:06:03.886Z,5.40
2022-10-06T01:08:32.036Z,5.30
2022-10-06T01:10:59.298Z,5.00
2022-10-06T01:13:27.642Z,5.40
2022-10-06T01:16:00.329Z,5.10
2022-10-06T01:18:28.788Z,4.75
2022-10-06T01:21:05.433Z,4.80
2022-10-06T01:23:34.078Z,4.95
2022-10-06T01:26:03.156Z,4.93
2022-10-06T01:28:30.693Z,4.30
2022-10-06T01:31:01.483Z,5.07
2022-10-06T01:33:29.878Z,4.45
2022-10-06T01:35:57.278Z,4.60
2022-10-06T01:38:24.670Z,4.50
2022-10-06T01:40:53.014Z,4.70
2022-10-06T01:43:20.330Z,5.10
2022-10-06T01:45:54.163Z,4.80
2022-10-06T01:48:21.278Z,4.60
2022-10-06T01:50:48.330Z,4.20
2022-10-06T01:53:15.341Z,4.25
2022-10-06T01:55:42.463Z,4.40
2022-10-06T01:58:10.294Z,4.30
2022-10-06T02:00:37.662Z,4.05
2022-10-06T02:03:05.210Z,4.18
2022-10-06T02:05:32.411Z,4.10
2022-10-06T02:07:59.426Z,4.17
2022-10-06T02:10:26.494Z,3.92
2022-10-06T02:12:53.686Z,3.80
2022-10-06T02:15:21.203Z,4.38
2022-10-06T02:17:48.714Z,3.80
2022-10-06T02:20:16.218Z,4.40
2022-10-06T02:22:43.791Z,3.90
2022-10-06T02:25:12.006Z,4.22
2022-10-06T02:27:39.573Z,3.95
2022-10-06T02:30:07.853Z,4.10
2022-10-06T02:32:36.978Z,4.00
2022-10-06T02:35:04.705Z,3.80
2022-10-06T02:37:31.814Z,3.78
2022-10-06T02:39:58.883Z,3.92
2022-10-06T02:42:25.962Z,4.20
2022-10-06T02:44:53.913Z,3.90
2022-10-06T02:47:22.622Z,4.10
2022-10-06T02:49:50.113Z,3.90
2022-10-06T02:52:17.276Z,3.80
2022-10-06T02:54:43.919Z,3.85
2022-10-06T02:57:11.002Z,3.90
2022-10-06T02:59:38.060Z,3.60
2022-10-06T03:02:05.252Z,4.28
2022-10-06T03:04:32.587Z,3.80
2022-10-06T03:06:59.701Z,3.42
2022-10-06T03:09:26.826Z,3.78
2022-10-06T03:11:54.053Z,3.63
2022-10-06T03:14:22.195Z,4.03
2022-10-06T03:16:51.797Z,3.70
2022-10-06T03:19:18.936Z,3.53
2022-10-06T03:21:46.730Z,4.20
2022-10-06T03:24:14.209Z,3.67
2022-10-06T03:26:42.829Z,4.13
2022-10-06T03:29:11.820Z,4.50
2022-10-06T03:31:40.010Z,4.00
2022-10-06T03:34:07.284Z,3.90
2022-10-06T03:36:35.109Z,4.30
2022-10-06T03:39:02.948Z,4.63
2022-10-06T03:41:31.702Z,5.30
2022-10-06T03:43:59.397Z,4.40
2022-10-06T03:46:27.968Z,4.75
2022-10-06T03:48:55.493Z,4.53
2022-10-06T03:51:27.125Z,4.30
2022-10-06T03:53:54.801Z,4.40
2022-10-06T03:56:24.036Z,4.05
2022-10-06T03:58:55.485Z,4.03
2022-10-06T04:01:26.484Z,3.55
2022-10-06T04:03:55.363Z,3.90
2022-10-06T04:06:22.800Z,3.43
2022-10-06T04:08:50.845Z,3.80
2022-10-06T04:11:20.205Z,3.80
2022-10-06T04:13:47.960Z,3.85
2022-10-06T04:16:17.033Z,4.05
2022-10-06T04:18:45.027Z,3.95
2022-10-06T04:21:12.959Z,3.90
2022-10-06T04:23:40.292Z,4.90
2022-10-06T04:26:09.754Z,6.50
2022-10-06T04:28:38.142Z,5.78
2022-10-06T04:31:06.216Z,5.85
2022-10-06T04:33:34.203Z,6.45
2022-10-06T04:36:02.464Z,5.73
2022-10-06T04:38:30.453Z,5.32
2022-10-06T04:40:57.771Z,5.13
2022-10-06T04:43:24.957Z,5.38
2022-10-06T04:45:59.975Z,4.95
2022-10-06T04:48:28.042Z,4.93
2022-10-06T04:50:56.196Z,4.80
2022-10-06T04:53:23.428Z,5.00
2022-10-06T04:55:58.556Z,5.20
2022-10-06T04:58:25.887Z,5.55
2022-10-06T05:00:53.254Z,5.78
2022-10-06T05:03:20.021Z,5.10
2022-10-06T05:05:47.108Z,5.90
2022-10-06T05:08:14.156Z,5.60
2022-10-06T05:10:42.037Z,5.53
2022-10-06T05:13:12.654Z,4.53
2022-10-06T05:15:39.800Z,4.82
2022-10-06T05:18:06.906Z,5.07
2022-10-06T05:20:34.049Z,4.60
2022-10-06T05:23:01.154Z,4.95
2022-10-06T05:25:28.210Z,4.97
2022-10-06T05:27:55.431Z,4.90
2022-10-06T05:30:22.522Z,5.35
2022-10-06T05:32:50.471Z,5.50
2022-10-06T05:35:17.610Z,6.22
2022-10-06T05:37:44.677Z,7.30
2022-10-06T05:40:11.821Z,7.83
2022-10-06T05:42:38.922Z,8.43
2022-10-06T05:45:06.185Z,8.10
2022-10-06T05:47:33.245Z,8.32
2022-10-06T05:50:00.466Z,7.68
2022-10-06T05:52:27.592Z,7.70
2022-10-06T05:54:54.647Z,8.20
2022-10-06T05:57:21.770Z,8.60
2022-10-06T05:59:48.826Z,8.88
2022-10-06T06:02:15.897Z,8.07
2022-10-06T06:04:43.140Z,9.60
2022-10-06T06:07:10.295Z,9.27
2022-10-06T06:09:37.513Z,7.78
2022-10-06T06:12:04.713Z,7.20
2022-10-06T06:14:51.670Z,7.07
2022-10-06T06:17:18.770Z,6.40
2022-10-06T06:19:45.876Z,6.60
2022-10-06T06:22:12.968Z,7.18
2022-10-06T06:24:40.037Z,7.03
2022-10-06T06:27:07.170Z,7.40
2022-10-06T06:29:34.323Z,6.53
2022-10-06T06:32:01.460Z,6.57
2022-10-06T06:34:29.046Z,7.20
2022-10-06T06:37:01.193Z,6.45
2022-10-06T06:39:32.431Z,6.60
2022-10-06T06:42:01.973Z,6.07
2022-10-06T06:44:30.071Z,6.15
2022-10-06T06:46:57.297Z,6.10
2022-10-06T06:49:24.776Z,6.13
2022-10-06T06:51:52.584Z,6.25
2022-10-06T06:54:19.649Z,6.00
2022-10-06T06:56:48.672Z,6.90
2022-10-06T06:59:17.465Z,8.18
2022-10-06T07:01:45.722Z,7.90
2022-10-06T07:04:13.833Z,7.68
2022-10-06T07:06:41.100Z,7.15
2022-10-06T07:09:09.745Z,7.60
2022-10-06T07:11:38.888Z,8.45
2022-10-06T07:14:07.231Z,8.63
2022-10-06T07:16:54.514Z,8.00
2022-10-06T07:19:42.018Z,6.25
2022-10-06T07:22:28.972Z,5.50
2022-10-06T07:25:14.947Z,3.65
2022-10-06T07:27:42.238Z,2.80
2022-10-06T07:30:11.384Z,2.75
2022-10-06T07:32:38.781Z,2.22
2022-10-06T07:35:06.555Z,2.22
2022-10-06T07:37:35.520Z,1.87
2022-10-06T07:40:02.679Z,1.75
2022-10-06T07:42:29.371Z,1.70
2022-10-06T07:45:15.952Z,2.28
2022-10-06T07:47:42.995Z,1.80
2022-10-06T07:50:13.023Z,1.40
2022-10-06T07:52:40.151Z,1.50
2022-10-06T07:55:07.456Z,1.40
2022-10-06T07:57:35.538Z,1.10
2022-10-06T08:00:05.475Z,1.30
2022-10-06T08:02:35.557Z,1.33
2022-10-06T08:05:03.905Z,1.33
2022-10-06T08:07:30.980Z,1.20
2022-10-06T08:09:58.088Z,1.10
2022-10-06T08:12:40.701Z,1.00
2022-10-06T08:15:11.275Z,0.90
2022-10-06T08:17:38.750Z,0.90
2022-10-06T08:20:06.908Z,1.03
2022-10-06T08:22:34.289Z,1.00
2022-10-06T08:25:07.675Z,0.80
2022-10-06T08:27:35.568Z,1.08
2022-10-06T08:30:03.275Z,1.15
2022-10-06T08:32:30.353Z,0.95
2022-10-06T08:34:58.094Z,1.10
2022-10-06T08:37:27.312Z,1.15
2022-10-06T08:39:55.077Z,0.90
2022-10-06T08:42:32.065Z,1.10
2022-10-06T08:45:01.197Z,0.90
2022-10-06T08:47:30.239Z,0.90
2022-10-06T08:49:58.088Z,1.10
2022-10-06T08:52:41.356Z,1.17
2022-10-06T08:55:23.853Z,1.10
2022-10-06T08:57:51.977Z,1.20
2022-10-06T09:00:22.028Z,1.30
2022-10-06T09:02:50.034Z,1.10
2022-10-06T09:05:25.566Z,1.15
2022-10-06T09:08:06.226Z,1.20
2022-10-06T09:10:40.647Z,1.13
2022-10-06T09:13:12.359Z,0.90
2022-10-06T09:15:39.552Z,0.63
2022-10-06T09:18:10.674Z,0.90
2022-10-06T09:20:44.672Z,1.02
2022-10-06T09:23:15.769Z,0.93
2022-10-06T09:25:42.901Z,1.10
2022-10-06T09:28:15.727Z,1.17
2022-10-06T09:30:43.487Z,0.80
2022-10-06T09:33:16.925Z,0.90
2022-10-06T09:36:08.865Z,0.80
2022-10-06T09:38:54.086Z,0.70
2022-10-06T09:41:23.833Z,0.90
2022-10-06T09:43:53.312Z,0.90
2022-10-06T09:46:21.929Z,0.80
2022-10-06T09:48:48.969Z,0.95
2022-10-06T09:51:17.776Z,0.80
2022-10-06T09:54:00.372Z,0.90
2022-10-06T09:56:27.588Z,0.70
2022-10-06T09:58:56.452Z,0.70
2022-10-06T10:01:25.434Z,0.90
2022-10-06T10:04:18.804Z,0.90
2022-10-06T10:06:41.909Z,0.90
2022-10-06T10:09:26.488Z,0.90
2022-10-06T10:12:22.733Z,0.93
2022-10-06T10:14:49.827Z,1.05
2022-10-06T10:17:20.119Z,0.90
2022-10-06T10:19:53.117Z,1.10
2022-10-06T10:22:37.401Z,0.95
2022-10-06T10:25:10.261Z,1.00
2022-10-06T10:27:46.548Z,0.90
2022-10-06T10:30:14.695Z,0.73
2022-10-06T10:33:02.005Z,1.00
2022-10-06T10:35:32.604Z,0.90
2022-10-06T10:38:05.641Z,0.90
2022-10-06T10:40:43.105Z,1.00
2022-10-06T10:43:30.147Z,1.00
2022-10-06T10:46:02.584Z,1.00
2022-10-06T10:48:36.576Z,0.90
2022-10-06T10:51:20.108Z,0.82
2022-10-06T10:53:49.671Z,1.08
2022-10-06T10:56:19.728Z,0.80
2022-10-06T10:58:49.831Z,0.80
2022-10-06T11:01:36.865Z,1.30
2022-10-06T11:04:04.139Z,1.15
2022-10-06T11:06:32.209Z,1.05
2022-10-06T11:08:59.307Z,1.02
2022-10-06T11:11:27.615Z,0.80
2022-10-06T11:13:55.331Z,0.75
2022-10-06T11:16:29.638Z,1.20
2022-10-06T11:19:16.768Z,1.20
2022-10-06T11:21:52.000Z,1.10
2022-10-06T11:24:25.974Z,0.95
2022-10-06T11:27:02.902Z,0.90
2022-10-06T11:29:36.072Z,1.00
2022-10-06T11:32:03.176Z,1.00
2022-10-06T11:34:30.335Z,0.80
2022-10-06T11:37:12.940Z,1.00
2022-10-06T11:39:51.217Z,0.88
2022-10-06T11:42:20.347Z,3.15
2022-10-06T11:44:50.912Z,1.95
2022-10-06T11:47:34.360Z,0.90
2022-10-06T11:50:02.755Z,1.10
2022-10-06T11:52:29.819Z,1.20
2022-10-06T11:55:06.939Z,1.08
2022-10-06T11:57:34.513Z,1.33
2022-10-06T12:00:09.156Z,0.95
2022-10-06T12:02:37.736Z,1.08
2022-10-06T12:08:13.225Z,1.20
2022-10-06T12:10:48.900Z,1.40
2022-10-06T12:19:25.874Z,1.00
2022-10-06T12:22:20.021Z,1.10
2022-10-06T12:24:58.877Z,2.10
2022-10-06T12:27:30.877Z,1.10
2022-10-06T12:30:01.172Z,1.17
2022-10-06T12:32:49.335Z,1.40
2022-10-06T12:35:24.619Z,1.10
2022-10-06T12:37:54.949Z,1.00
2022-10-06T12:40:41.011Z,1.27
2022-10-06T12:43:17.355Z,1.30
2022-10-06T12:45:46.396Z,1.20
2022-10-06T12:48:17.442Z,1.20
2022-10-06T12:50:45.186Z,0.93
2022-10-06T12:53:16.942Z,1.02
2022-10-06T12:55:52.990Z,0.95
2022-10-06T12:58:21.637Z,1.10
2022-10-06T13:00:49.220Z,1.30
2022-10-06T13:03:24.046Z,1.00
2022-10-06T13:05:57.740Z,1.10
2022-10-06T13:08:27.443Z,1.48
2022-10-06T13:11:29.790Z,1.10
2022-10-06T13:13:59.157Z,1.00
2022-10-06T13:16:29.830Z,1.10
2022-10-06T13:18:58.927Z,0.90
2022-10-06T13:21:28.880Z,1.00
2022-10-06T13:23:56.100Z,1.15
2022-10-06T13:26:27.639Z,1.20
2022-10-06T13:28:55.672Z,1.08
2022-10-06T13:31:27.303Z,0.90
2022-10-06T13:33:54.465Z,1.10
2022-10-06T13:36:23.407Z,0.98
2022-10-06T13:38:50.974Z,1.17
2022-10-06T13:41:21.802Z,1.23
2022-10-06T13:43:52.053Z,1.02
2022-10-06T13:46:21.381Z,1.10
2022-10-06T13:48:54.269Z,0.90
2022-10-06T13:51:23.892Z,1.25
2022-10-06T13:53:51.968Z,1.60
2022-10-06T13:56:36.282Z,1.08
2022-10-06T13:59:23.311Z,1.30
2022-10-06T14:01:50.457Z,1.20
2022-10-06T14:04:18.973Z,1.00
2022-10-06T14:06:48.164Z,1.10
2022-10-06T14:09:19.824Z,0.90
2022-10-06T14:11:47.017Z,1.10
2022-10-06T14:14:17.828Z,1.20
2022-10-06T14:16:49.432Z,1.20
2022-10-06T14:19:30.349Z,0.93
2022-10-06T14:21:57.460Z,1.30
2022-10-06T14:24:28.258Z,1.00
2022-10-06T14:27:00.519Z,1.05
2022-10-06T14:29:27.597Z,1.00
2022-10-06T14:31:54.357Z,1.05
2022-10-06T14:34:22.690Z,1.10
2022-10-06T14:36:51.691Z,1.10
2022-10-06T14:39:18.980Z,0.80
2022-10-06T14:41:46.441Z,0.77
2022-10-06T14:44:15.504Z,0.97
2022-10-06T14:46:44.292Z,0.93
2022-10-06T14:49:13.358Z,1.00
2022-10-06T14:51:40.939Z,1.00
2022-10-06T14:54:10.286Z,0.93
2022-10-06T14:56:38.942Z,0.93
2022-10-06T14:59:07.367Z,0.88
2022-10-06T15:01:35.628Z,0.85
2022-10-06T15:04:06.958Z,0.95
2022-10-06T15:06:53.946Z,0.98
2022-10-06T15:09:21.026Z,0.98
2022-10-06T15:11:48.121Z,1.15
2022-10-06T15:14:15.343Z,0.95
2022-10-06T15:16:44.460Z,0.90
2022-10-06T15:19:12.309Z,0.95
2022-10-06T15:21:40.138Z,1.92
2022-10-06T15:24:07.939Z,2.05
2022-10-06T15:26:54.939Z,1.65
2022-10-06T15:29:21.989Z,1.08
2022-10-06T15:31:53.038Z,1.07
2022-10-06T15:34:25.051Z,0.98
2022-10-06T15:36:53.170Z,1.20
2022-10-06T15:39:21.160Z,1.13
2022-10-06T15:41:48.831Z,1.00
2022-10-06T15:44:16.214Z,0.98
2022-10-06T15:46:45.117Z,1.00
2022-10-06T15:49:14.194Z,1.00
2022-10-06T15:51:48.134Z,1.10
2022-10-06T15:54:19.070Z,0.90
2022-10-06T15:56:47.666Z,1.05
2022-10-06T15:59:15.266Z,0.90
2022-10-06T16:01:44.015Z,1.10
2022-10-06T16:04:16.246Z,1.00
2022-10-06T16:06:58.823Z,0.90
2022-10-06T16:09:28.450Z,1.00
2022-10-06T16:11:56.313Z,1.15
2022-10-06T16:14:23.342Z,1.23
2022-10-06T16:16:50.443Z,1.08
2022-10-06T16:19:18.269Z,1.80
2022-10-06T16:21:47.745Z,1.25
2022-10-06T16:24:15.001Z,1.20
2022-10-06T16:26:42.980Z,1.08
2022-10-06T16:29:10.145Z,1.20
2022-10-06T16:31:37.306Z,1.03
2022-10-06T16:34:04.494Z,1.40
2022-10-06T16:36:31.862Z,1.10
2022-10-06T16:38:58.542Z,1.20
2022-10-06T16:41:25.745Z,1.20
2022-10-06T16:43:54.237Z,1.23
2022-10-06T16:46:22.874Z,1.17
2022-10-06T16:48:51.337Z,1.30
2022-10-06T16:51:21.192Z,1.77
2022-10-06T16:53:49.456Z,1.98
2022-10-06T16:56:18.322Z,2.22
2022-10-06T16:58:46.360Z,1.70
2022-10-06T17:01:14.360Z,1.48
2022-10-06T17:03:42.309Z,1.40
2022-10-06T17:06:10.589Z,1.45
2022-10-06T17:08:38.358Z,2.87
2022-10-06T17:11:07.397Z,4.63
2022-10-06T17:13:35.149Z,3.28
2022-10-06T17:16:04.571Z,6.97
2022-10-06T17:18:31.857Z,4.78
2022-10-06T17:21:00.025Z,3.00
2022-10-06T17:23:27.960Z,2.70
2022-10-06T17:26:03.270Z,3.00
2022-10-06T17:28:30.720Z,2.85
2022-10-06T17:30:59.476Z,2.05
2022-10-06T17:33:27.885Z,1.80
2022-10-06T17:35:55.082Z,2.00
2022-10-06T17:38:22.311Z,2.03
2022-10-06T17:40:49.819Z,2.13
2022-10-06T17:43:16.987Z,2.00
2022-10-06T17:45:44.201Z,1.80
2022-10-06T17:48:12.329Z,1.50
2022-10-06T17:50:39.513Z,1.60
2022-10-06T17:53:07.012Z,1.58
2022-10-06T17:55:36.779Z,1.50
2022-10-06T17:58:04.531Z,1.70
2022-10-06T18:00:31.700Z,2.58
2022-10-06T18:03:00.083Z,3.90
2022-10-06T18:05:32.124Z,3.50
2022-10-06T18:08:00.867Z,3.00
2022-10-06T18:10:47.903Z,7.10
2022-10-06T18:13:15.033Z,2.90
2022-10-06T18:15:42.151Z,2.60
2022-10-06T18:18:09.303Z,3.40
2022-10-06T18:20:41.106Z,4.30
2022-10-06T18:23:09.543Z,4.28
2022-10-06T18:25:36.722Z,3.40
2022-10-06T18:28:03.983Z,3.33
2022-10-06T18:30:31.200Z,2.72
2022-10-06T18:35:29.812Z,3.00
2022-10-06T18:38:36.987Z,2.70
2022-10-06T18:41:07.083Z,3.03
2022-10-06T18:43:34.279Z,3.97
2022-10-06T18:46:22.317Z,6.13
2022-10-06T18:48:58.383Z,11.10
2022-10-06T18:51:27.094Z,10.30
2022-10-06T18:53:55.152Z,13.85
2022-10-06T18:56:23.752Z,10.57
2022-10-06T18:58:50.931Z,8.43
2022-10-06T19:01:18.310Z,5.47
2022-10-06T19:03:45.530Z,4.30
2022-10-06T19:06:12.346Z,3.60
2022-10-06T19:08:40.226Z,5.10
2022-10-06T19:11:33.842Z,3.42
2022-10-06T19:14:01.021Z,3.63
2022-10-06T19:16:28.167Z,3.20
2022-10-06T19:18:55.428Z,3.42
2022-10-06T19:21:22.571Z,4.50
2022-10-06T19:23:50.433Z,3.92
2022-10-06T19:26:18.729Z,9.93
2022-10-06T19:28:46.727Z,14.20
2022-10-06T19:31:20.033Z,13.75
2022-10-06T19:33:48.223Z,10.40
2022-10-06T19:36:16.921Z,5.50
2022-10-06T19:38:45.531Z,5.15
2022-10-06T19:41:32.860Z,4.23
2022-10-06T19:44:02.157Z,3.50
2022-10-06T19:46:29.391Z,3.60
2022-10-06T19:48:58.377Z,5.88
2022-10-06T19:51:25.970Z,6.18
2022-10-06T19:53:53.037Z,4.80
2022-10-06T19:56:21.121Z,4.20
2022-10-06T19:58:49.818Z,3.90
2022-10-06T20:01:17.007Z,4.95
2022-10-06T20:03:44.166Z,5.15
2022-10-06T20:06:12.763Z,5.40
2022-10-06T20:08:40.824Z,4.88
2022-10-06T20:11:09.746Z,4.22
2022-10-06T20:13:38.516Z,4.20
2022-10-06T20:16:08.408Z,4.53
2022-10-06T20:18:36.460Z,6.30
2022-10-06T20:21:03.594Z,10.15
2022-10-06T20:23:32.707Z,11.15
2022-10-06T20:26:08.067Z,11.77
2022-10-06T20:28:35.146Z,8.50
2022-10-06T20:31:02.301Z,5.10
2022-10-06T20:33:32.874Z,3.92
2022-10-06T20:36:00.877Z,3.50
2022-10-06T20:38:47.856Z,3.72
2022-10-06T20:41:16.608Z,4.18
2022-10-06T20:43:43.724Z,4.15
2022-10-06T20:46:11.061Z,3.50
2022-10-06T20:48:38.699Z,4.10
2022-10-06T20:51:14.751Z,3.63
2022-10-06T20:53:41.848Z,3.50
2022-10-06T20:56:09.279Z,4.30
2022-10-06T20:58:36.731Z,3.88
2022-10-06T21:01:06.051Z,3.92
2022-10-06T21:03:33.925Z,4.80
2022-10-06T21:06:01.111Z,4.68
2022-10-06T21:08:28.467Z,4.03
2022-10-06T21:10:56.220Z,4.53
2022-10-06T21:13:23.268Z,4.75
2022-10-06T21:15:50.456Z,3.78
2022-10-06T21:18:18.244Z,3.55
2022-10-06T21:20:54.052Z,3.67
2022-10-06T21:23:21.082Z,2.90
2022-10-06T21:25:50.464Z,3.53
2022-10-06T21:28:18.483Z,4.03
2022-10-06T21:30:45.902Z,4.40
2022-10-06T21:33:13.009Z,4.53
2022-10-06T21:35:40.200Z,4.45
2022-10-06T21:38:07.279Z,3.83
2022-10-06T21:40:36.951Z,3.72
2022-10-06T21:43:04.743Z,4.28
2022-10-06T21:45:33.129Z,5.45
2022-10-06T21:48:00.363Z,4.38
2022-10-06T21:50:27.423Z,3.67
2022-10-06T21:52:54.474Z,3.83
2022-10-06T21:55:21.498Z,3.65
2022-10-06T21:57:48.555Z,2.90
2022-10-06T22:00:15.694Z,3.35
2022-10-06T22:02:42.897Z,4.00
2022-10-06T22:05:10.087Z,4.38
2022-10-06T22:07:37.198Z,3.92
2022-10-06T22:10:04.668Z,4.93
2022-10-06T22:12:31.729Z,4.15
2022-10-06T22:14:59.137Z,3.83
2022-10-06T22:17:27.165Z,5.05
2022-10-06T22:19:54.202Z,4.75
2022-10-06T22:22:21.301Z,4.25
2022-10-06T22:24:48.455Z,4.80
2022-10-06T22:27:15.538Z,3.83
2022-10-06T22:29:42.877Z,4.72
2022-10-06T22:32:10.094Z,4.30
2022-10-06T22:34:37.937Z,3.90
2022-10-06T22:37:05.000Z,3.78
2022-10-06T22:39:32.259Z,4.03
2022-10-06T22:41:59.315Z,4.10
2022-10-06T22:44:26.388Z,4.22
2022-10-06T22:46:53.486Z,4.10
2022-10-06T22:49:20.640Z,4.15
2022-10-06T22:51:47.753Z,4.38
2022-10-06T22:54:19.486Z,3.70
2022-10-06T22:56:46.657Z,4.00
2022-10-06T22:59:14.424Z,3.63
2022-10-06T23:01:41.689Z,3.72
2022-10-06T23:04:08.761Z,3.90
2022-10-06T23:06:35.497Z,4.15
2022-10-06T23:09:03.081Z,4.47
2022-10-06T23:11:30.199Z,4.30
2022-10-06T23:13:58.419Z,4.70
2022-10-06T23:16:25.576Z,3.47
2022-10-06T23:18:52.731Z,4.07
2022-10-06T23:21:22.003Z,4.68
2022-10-06T23:23:50.324Z,4.30
2022-10-06T23:26:18.887Z,4.90
2022-10-06T23:28:46.928Z,4.68
2022-10-06T23:31:14.151Z,4.90
2022-10-06T23:33:41.256Z,4.47
2022-10-06T23:36:10.136Z,5.10
2022-10-06T23:38:37.980Z,4.30
2022-10-06T23:41:05.219Z,4.53
2022-10-06T23:43:32.603Z,4.05
2022-10-06T23:45:59.760Z,3.47
2022-10-06T23:48:26.856Z,4.28
2022-10-06T23:50:56.004Z,3.42
2022-10-06T23:53:23.098Z,3.90
2022-10-06T23:55:50.179Z,3.95
2022-10-06T23:58:17.254Z,4.07
